Time;durP1;ratioP1;P1;durP2;ratioP2;P2;SDS_P1;SDS_P2;PMS_P1;PMS_P2;Temp;Humidity;BMP_temperature;BMP_pressure;BME280_temperature;BME280_humidity;BME280_pressure;Samples;Min_cycle;Max_cycle;Signal;HPM_P1;HPM_P2
2022/04/03 00:02:03;;;;;;;4.05;3.20;;;;;;;;;;1719831;83;21082;-73
2022/04/03 00:04:30;;;;;;;5.60;3.83;;;;;;;;;;1719892;82;21079;-71
2022/04/03 00:06:59;;;;;;;4.62;3.72;;;;;;;;;;1719823;83;21112;-71
2022/04/03 00:09:26;;;;;;;5.78;4.00;;;;;;;;;;1719977;83;21595;-72
2022/04/03 00:11:52;;;;;;;5.72;4.00;;;;;;;;;;1719802;83;21562;-72
2022/04/03 00:14:20;;;;;;;4.80;3.37;;;;;;;;;;1719979;83;21108;-72
2022/04/03 00:16:46;;;;;;;5.60;4.08;;;;;;;;;;1719766;83;21063;-72
2022/04/03 00:19:13;;;;;;;6.45;3.87;;;;;;;;;;1720095;83;21069;-72
2022/04/03 00:21:40;;;;;;;4.87;3.70;;;;;;;;;;1719660;83;21115;-74
2022/04/03 00:24:07;;;;;;;4.95;3.40;;;;;;;;;;1719802;83;21072;-73
2022/04/03 00:26:34;;;;;;;4.95;3.83;;;;;;;;;;1719897;83;21028;-72
2022/04/03 00:29:00;;;;;;;4.85;3.45;;;;;;;;;;1719782;83;21036;-73
2022/04/03 00:31:26;;;;;;;4.70;3.17;;;;;;;;;;1720042;83;21100;-72
2022/04/03 00:33:52;;;;;;;6.45;3.62;;;;;;;;;;1719586;83;21020;-72
2022/04/03 00:36:19;;;;;;;4.62;3.30;;;;;;;;;;1720014;83;21103;-72
2022/04/03 00:38:45;;;;;;;4.12;3.55;;;;;;;;;;1719655;83;21064;-72
2022/04/03 00:41:13;;;;;;;3.77;3.17;;;;;;;;;;1720038;83;21063;-72
2022/04/03 00:43:40;;;;;;;4.42;3.08;;;;;;;;;;1719834;83;21040;-72
2022/04/03 00:46:08;;;;;;;4.72;3.00;;;;;;;;;;1720164;83;21005;-72
2022/04/03 00:48:34;;;;;;;4.30;3.33;;;;;;;;;;1719869;83;21068;-72
2022/04/03 00:51:00;;;;;;;5.62;3.33;;;;;;;;;;1719698;83;21563;-71
2022/04/03 00:53:27;;;;;;;5.08;3.33;;;;;;;;;;1719557;83;21580;-73
2022/04/03 00:55:53;;;;;;;5.67;3.65;;;;;;;;;;1719826;83;21099;-72
2022/04/03 00:58:19;;;;;;;5.28;3.58;;;;;;;;;;1719908;83;21032;-72
2022/04/03 01:03:28;;;;;;;4.75;3.52;;;;;;;;;;1699679;81;21092;-71
2022/04/03 01:05:56;;;;;;;4.62;2.98;;;;;;;;;;1671634;85;21037;-72
2022/04/03 01:08:25;;;;;;;4.53;3.30;;;;;;;;;;1655836;87;21049;-71
2022/04/03 01:10:51;;;;;;;4.22;3.15;;;;;;;;;;1655770;87;21096;-72
2022/04/03 01:13:18;;;;;;;5.80;3.50;;;;;;;;;;1655741;86;21096;-72
2022/04/03 01:15:54;;;;;;;4.70;3.50;;;;;;;;;;1655604;87;21127;-72
2022/04/03 01:18:23;;;;;;;4.33;3.52;;;;;;;;;;1656001;87;21052;-71
2022/04/03 01:20:51;;;;;;;5.28;3.70;;;;;;;;;;1655916;86;21077;-72
2022/04/03 01:23:17;;;;;;;5.83;3.52;;;;;;;;;;1655886;87;21521;-72
2022/04/03 01:25:44;;;;;;;4.55;3.58;;;;;;;;;;1655776;87;21076;-71
2022/04/03 01:28:10;;;;;;;5.75;3.67;;;;;;;;;;1655951;86;21088;-72
2022/04/03 01:30:37;;;;;;;5.65;3.90;;;;;;;;;;1655720;87;21076;-71
2022/04/03 01:33:03;;;;;;;5.72;3.58;;;;;;;;;;1656007;87;21116;-72
2022/04/03 01:35:29;;;;;;;6.25;3.30;;;;;;;;;;1655868;87;21128;-71
2022/04/03 01:37:56;;;;;;;4.92;3.40;;;;;;;;;;1655948;86;21560;-71
2022/04/03 01:40:22;;;;;;;5.45;3.75;;;;;;;;;;1655985;86;21598;-72
2022/04/03 01:42:50;;;;;;;4.25;3.15;;;;;;;;;;1655776;87;21622;-72
2022/04/03 01:45:16;;;;;;;5.17;3.70;;;;;;;;;;1655980;86;21093;-72
2022/04/03 01:47:43;;;;;;;4.78;3.25;;;;;;;;;;1655878;87;21060;-72
2022/04/03 01:50:09;;;;;;;5.20;3.25;;;;;;;;;;1656047;87;21017;-71
2022/04/03 01:52:35;;;;;;;4.65;3.45;;;;;;;;;;1655842;86;21096;-72
2022/04/03 01:55:03;;;;;;;4.12;3.10;;;;;;;;;;1655924;86;21044;-72
2022/04/03 01:57:29;;;;;;;6.15;4.00;;;;;;;;;;1656177;87;21037;-72
2022/04/03 01:59:55;;;;;;;4.95;3.10;;;;;;;;;;1655769;87;21116;-72
2022/04/03 02:02:21;;;;;;;5.12;3.27;;;;;;;;;;1656146;87;21124;-72
2022/04/03 02:04:49;;;;;;;3.52;3.08;;;;;;;;;;1683495;84;21643;-71
2022/04/03 02:07:15;;;;;;;5.72;3.10;;;;;;;;;;1690196;85;21568;-71
2022/04/03 02:09:42;;;;;;;5.12;3.40;;;;;;;;;;1690070;85;21111;-72
2022/04/03 02:12:10;;;;;;;4.80;3.90;;;;;;;;;;1690429;84;21025;-71
2022/04/03 02:14:36;;;;;;;6.40;3.80;;;;;;;;;;1690480;85;21052;-72
2022/04/03 02:17:02;;;;;;;4.87;3.83;;;;;;;;;;1690396;85;21084;-71
2022/04/03 02:19:29;;;;;;;5.58;3.95;;;;;;;;;;1690134;85;21060;-72
2022/04/03 02:21:57;;;;;;;4.95;3.77;;;;;;;;;;1690347;85;21634;-72
2022/04/03 02:24:23;;;;;;;5.08;3.83;;;;;;;;;;1690151;85;21643;-72
2022/04/03 02:26:49;;;;;;;5.55;3.52;;;;;;;;;;1690544;85;21536;-70
2022/04/03 02:29:16;;;;;;;5.50;4.03;;;;;;;;;;1690391;85;21144;-72
2022/04/03 02:31:42;;;;;;;5.92;4.08;;;;;;;;;;1690092;85;21619;-72
2022/04/03 02:34:09;;;;;;;5.33;3.77;;;;;;;;;;1690279;85;21119;-70
2022/04/03 02:36:40;;;;;;;5.12;3.87;;;;;;;;;;1690003;85;21140;-70
2022/04/03 02:39:06;;;;;;;4.20;3.05;;;;;;;;;;1690242;84;21524;-72
2022/04/03 02:41:35;;;;;;;5.92;4.30;;;;;;;;;;1690051;85;21184;-70
2022/04/03 02:44:02;;;;;;;5.87;4.20;;;;;;;;;;1690384;85;21103;-70
2022/04/03 02:46:30;;;;;;;5.30;3.92;;;;;;;;;;1690438;85;21513;-70
2022/04/03 02:48:57;;;;;;;5.75;3.40;;;;;;;;;;1690512;85;21013;-70
2022/04/03 02:51:24;;;;;;;4.37;3.33;;;;;;;;;;1690483;85;21132;-71
2022/04/03 02:53:50;;;;;;;5.65;3.45;;;;;;;;;;1690530;85;21084;-71
2022/04/03 02:56:17;;;;;;;5.10;3.70;;;;;;;;;;1690497;85;21101;-71
2022/04/03 02:58:44;;;;;;;6.12;4.25;;;;;;;;;;1690448;85;21128;-70
2022/04/03 03:01:11;;;;;;;5.53;3.55;;;;;;;;;;1690292;85;21033;-71
2022/04/03 03:03:38;;;;;;;6.78;3.42;;;;;;;;;;1690694;83;21552;-70
2022/04/03 03:06:04;;;;;;;5.50;3.90;;;;;;;;;;1701120;84;21534;-70
2022/04/03 03:08:31;;;;;;;6.53;3.85;;;;;;;;;;1701297;84;21526;-71
2022/04/03 03:10:58;;;;;;;7.20;3.72;;;;;;;;;;1701104;84;21039;-70
2022/04/03 03:13:25;;;;;;;6.95;3.90;;;;;;;;;;1701400;84;21095;-71
2022/04/03 03:15:52;;;;;;;6.05;3.80;;;;;;;;;;1700985;84;21063;-70
2022/04/03 03:18:21;;;;;;;5.65;3.40;;;;;;;;;;1701344;84;21051;-71
2022/04/03 03:20:49;;;;;;;6.45;4.10;;;;;;;;;;1701038;84;21071;-71
2022/04/03 03:23:15;;;;;;;5.45;3.62;;;;;;;;;;1701489;84;21071;-70
2022/04/03 03:25:43;;;;;;;7.60;3.62;;;;;;;;;;1700995;84;21055;-71
2022/04/03 03:28:09;;;;;;;5.05;3.42;;;;;;;;;;1701129;84;21091;-71
2022/04/03 03:30:36;;;;;;;5.00;3.58;;;;;;;;;;1701121;84;21071;-69
2022/04/03 03:33:03;;;;;;;5.05;3.72;;;;;;;;;;1701429;84;21111;-70
2022/04/03 03:35:30;;;;;;;5.67;4.05;;;;;;;;;;1701007;84;21055;-71
2022/04/03 03:37:58;;;;;;;6.25;3.58;;;;;;;;;;1701153;84;21059;-70
2022/04/03 03:40:24;;;;;;;5.40;3.47;;;;;;;;;;1701278;84;21086;-71
2022/04/03 03:42:52;;;;;;;5.37;4.05;;;;;;;;;;1701253;84;21570;-72
2022/04/03 03:45:18;;;;;;;6.50;4.28;;;;;;;;;;1701328;84;21071;-72
2022/04/03 03:47:45;;;;;;;6.80;4.15;;;;;;;;;;1701178;84;21610;-71
2022/04/03 03:50:12;;;;;;;5.40;4.00;;;;;;;;;;1701357;84;21071;-72
2022/04/03 03:52:41;;;;;;;5.28;3.72;;;;;;;;;;1701298;84;21043;-72
2022/04/03 03:55:08;;;;;;;5.78;3.92;;;;;;;;;;1701238;84;21026;-70
2022/04/03 03:57:34;;;;;;;6.35;4.03;;;;;;;;;;1700973;84;21109;-73
2022/04/03 04:00:01;;;;;;;5.62;4.40;;;;;;;;;;1701294;84;21127;-70
2022/04/03 04:02:29;;;;;;;6.67;3.50;;;;;;;;;;1699052;84;21059;-72
2022/04/03 04:04:58;;;;;;;5.92;4.12;;;;;;;;;;1692145;83;21722;-70
2022/04/03 04:07:24;;;;;;;4.87;3.12;;;;;;;;;;1682877;85;21616;-71
2022/04/03 04:09:50;;;;;;;5.20;3.58;;;;;;;;;;1682814;85;21100;-71
2022/04/03 04:12:17;;;;;;;4.45;3.30;;;;;;;;;;1682687;85;21090;-71
2022/04/03 04:14:45;;;;;;;5.67;3.75;;;;;;;;;;1682654;85;21152;-71
2022/04/03 04:17:12;;;;;;;4.12;2.85;;;;;;;;;;1682766;85;21100;-71
2022/04/03 04:19:39;;;;;;;6.08;3.30;;;;;;;;;;1682863;85;21076;-70
2022/04/03 04:22:06;;;;;;;5.30;3.40;;;;;;;;;;1682682;85;21576;-70
2022/04/03 04:24:32;;;;;;;7.33;3.58;;;;;;;;;;1682811;85;21555;-70
2022/04/03 04:27:00;;;;;;;4.58;3.00;;;;;;;;;;1682788;85;21061;-70
2022/04/03 04:29:26;;;;;;;5.62;3.77;;;;;;;;;;1682615;85;21085;-70
2022/04/03 04:31:53;;;;;;;4.22;3.27;;;;;;;;;;1682686;85;21065;-70
2022/04/03 04:34:19;;;;;;;5.85;3.37;;;;;;;;;;1682851;85;21073;-70
2022/04/03 04:36:45;;;;;;;5.15;3.58;;;;;;;;;;1682626;85;21084;-70
2022/04/03 04:39:11;;;;;;;6.35;3.77;;;;;;;;;;1682580;85;21090;-71
2022/04/03 04:41:40;;;;;;;5.83;3.17;;;;;;;;;;1682774;85;21109;-71
2022/04/03 04:44:07;;;;;;;8.50;3.90;;;;;;;;;;1682580;85;21544;-70
2022/04/03 04:46:34;;;;;;;5.08;3.50;;;;;;;;;;1682881;85;21585;-70
2022/04/03 04:49:01;;;;;;;4.70;3.20;;;;;;;;;;1682998;85;21519;-70
2022/04/03 04:51:27;;;;;;;6.58;3.45;;;;;;;;;;1683016;85;21576;-70
2022/04/03 04:53:54;;;;;;;6.03;3.72;;;;;;;;;;1682713;85;21120;-70
2022/04/03 04:56:20;;;;;;;5.50;3.60;;;;;;;;;;1683020;85;21084;-70
2022/04/03 04:58:46;;;;;;;5.22;3.47;;;;;;;;;;1682700;85;21136;-71
2022/04/03 05:01:15;;;;;;;5.62;3.72;;;;;;;;;;1682720;85;21069;-70
2022/04/03 05:03:42;;;;;;;6.10;3.47;;;;;;;;;;1682728;84;21111;-71
2022/04/03 05:06:12;;;;;;;6.50;4.00;;;;;;;;;;1688823;84;21100;-70
2022/04/03 05:08:36;;;;;;;5.15;3.12;;;;;;;;;;1690040;85;21092;-72
2022/04/03 05:11:03;;;;;;;5.53;3.45;;;;;;;;;;1690317;85;21065;-71
2022/04/03 05:13:29;;;;;;;4.83;3.47;;;;;;;;;;1690495;85;21128;-71
2022/04/03 05:15:56;;;;;;;6.80;3.70;;;;;;;;;;1690182;85;21072;-72
2022/04/03 05:18:23;;;;;;;5.40;3.50;;;;;;;;;;1690584;85;21096;-72
2022/04/03 05:20:51;;;;;;;5.55;3.45;;;;;;;;;;1690146;85;21572;-72
2022/04/03 05:23:17;;;;;;;6.22;3.98;;;;;;;;;;1690560;85;21100;-72
2022/04/03 05:25:45;;;;;;;5.15;3.80;;;;;;;;;;1690100;85;21056;-72
2022/04/03 05:28:11;;;;;;;5.12;3.55;;;;;;;;;;1690604;85;21123;-71
2022/04/03 05:30:37;;;;;;;5.10;4.00;;;;;;;;;;1690179;85;21130;-72
2022/04/03 05:33:04;;;;;;;6.03;3.98;;;;;;;;;;1690579;85;21060;-72
2022/04/03 05:35:31;;;;;;;5.37;3.92;;;;;;;;;;1690163;85;21048;-72
2022/04/03 05:37:57;;;;;;;6.20;4.10;;;;;;;;;;1690459;85;21203;-72
2022/04/03 05:40:23;;;;;;;5.75;3.85;;;;;;;;;;1690157;85;21092;-72
2022/04/03 05:42:49;;;;;;;5.28;3.87;;;;;;;;;;1690234;85;21091;-72
2022/04/03 05:45:16;;;;;;;6.12;3.55;;;;;;;;;;1690132;85;21065;-72
2022/04/03 05:47:42;;;;;;;5.70;3.87;;;;;;;;;;1690344;85;21123;-71
2022/04/03 05:50:09;;;;;;;7.28;4.58;;;;;;;;;;1690448;85;21088;-71
2022/04/03 05:52:42;;;;;;;5.00;3.50;;;;;;;;;;1690303;85;21055;-70
2022/04/03 05:55:09;;;;;;;5.80;3.92;;;;;;;;;;1690568;85;21072;-70
2022/04/03 05:57:36;;;;;;;4.87;3.67;;;;;;;;;;1690291;85;21097;-71
2022/04/03 06:00:03;;;;;;;6.92;4.08;;;;;;;;;;1690299;85;21013;-70
2022/04/03 06:02:51;;;;;;;5.90;4.00;;;;;;;;;;1689770;85;21085;-70
2022/04/03 06:05:18;;;;;;;6.42;4.35;;;;;;;;;;1690379;84;21104;-71
2022/04/03 06:07:45;;;;;;;5.65;3.77;;;;;;;;;;1690489;85;21024;-71
2022/04/03 06:10:11;;;;;;;6.53;4.30;;;;;;;;;;1690232;85;21212;-71
2022/04/03 06:12:40;;;;;;;7.00;3.83;;;;;;;;;;1690184;85;21045;-71
2022/04/03 06:15:09;;;;;;;5.62;4.03;;;;;;;;;;1689019;85;21172;-70
2022/04/03 06:17:35;;;;;;;5.37;4.00;;;;;;;;;;1690836;85;21013;-70
2022/04/03 06:20:01;;;;;;;4.53;3.35;;;;;;;;;;1690727;85;21080;-70
2022/04/03 06:22:27;;;;;;;5.20;3.83;;;;;;;;;;1690423;85;21069;-70
2022/04/03 06:24:56;;;;;;;5.40;4.10;;;;;;;;;;1690363;85;21071;-71
2022/04/03 06:27:22;;;;;;;6.17;4.15;;;;;;;;;;1690494;85;21041;-71
2022/04/03 06:29:49;;;;;;;5.92;4.47;;;;;;;;;;1690117;85;21079;-71
2022/04/03 06:32:15;;;;;;;6.53;4.10;;;;;;;;;;1690625;85;21097;-71
2022/04/03 06:34:42;;;;;;;6.40;3.80;;;;;;;;;;1690095;85;21049;-71
2022/04/03 06:40:09;;;;;;;5.35;3.40;;;;;;;;;;1819718;79;22810;-71
2022/04/03 06:42:36;;;;;;;5.58;3.67;;;;;;;;;;1792902;80;21024;-71
2022/04/03 06:45:03;;;;;;;5.53;3.47;;;;;;;;;;1792727;80;21028;-71
2022/04/03 06:47:30;;;;;;;4.55;3.22;;;;;;;;;;1793181;80;21065;-71
2022/04/03 06:49:57;;;;;;;7.25;4.50;;;;;;;;;;1792775;80;21090;-72
2022/04/03 06:52:23;;;;;;;5.50;3.42;;;;;;;;;;1793022;80;20956;-71
2022/04/03 06:54:50;;;;;;;5.87;3.35;;;;;;;;;;1792784;80;21063;-71
2022/04/03 06:57:18;;;;;;;4.60;3.60;;;;;;;;;;1793197;80;21059;-71
2022/04/03 06:59:46;;;;;;;5.55;3.50;;;;;;;;;;1792639;80;21547;-71
2022/04/03 07:02:12;;;;;;;6.00;3.83;;;;;;;;;;1792948;80;21515;-71
2022/04/03 07:04:39;;;;;;;5.25;3.17;;;;;;;;;;1792875;79;21106;-71
2022/04/03 07:07:05;;;;;;;4.62;3.20;;;;;;;;;;1793025;80;21076;-71
2022/04/03 07:09:35;;;;;;;5.33;3.45;;;;;;;;;;1792818;80;21047;-71
2022/04/03 07:12:01;;;;;;;6.85;3.45;;;;;;;;;;1792205;80;21827;-71
2022/04/03 07:14:29;;;;;;;4.17;2.98;;;;;;;;;;1793212;80;21067;-72
2022/04/03 07:16:56;;;;;;;4.60;3.12;;;;;;;;;;1792810;80;21024;-72
2022/04/03 07:19:22;;;;;;;4.17;2.98;;;;;;;;;;1793057;80;21060;-71
2022/04/03 07:21:50;;;;;;;4.67;2.72;;;;;;;;;;1792772;80;21071;-71
2022/04/03 07:24:17;;;;;;;4.00;2.70;;;;;;;;;;1793181;80;21110;-72
2022/04/03 07:26:43;;;;;;;4.80;3.25;;;;;;;;;;1793086;80;21005;-73
2022/04/03 07:29:10;;;;;;;4.17;2.95;;;;;;;;;;1793165;80;21067;-71
2022/04/03 07:31:37;;;;;;;3.85;2.98;;;;;;;;;;1792864;80;21027;-72
2022/04/03 07:34:03;;;;;;;5.75;2.80;;;;;;;;;;1793120;80;21067;-72
2022/04/03 07:36:30;;;;;;;3.58;2.52;;;;;;;;;;1792888;80;21084;-71
2022/04/03 07:38:57;;;;;;;4.45;2.50;;;;;;;;;;1787538;80;21092;-72
2022/04/03 07:41:24;;;;;;;3.65;2.85;;;;;;;;;;1779266;81;21025;-72
2022/04/03 07:43:50;;;;;;;4.83;2.75;;;;;;;;;;1779333;81;21099;-71
2022/04/03 07:46:17;;;;;;;3.72;2.60;;;;;;;;;;1779203;81;21025;-70
2022/04/03 07:48:43;;;;;;;3.22;2.50;;;;;;;;;;1779565;81;21033;-72
2022/04/03 07:51:10;;;;;;;3.75;2.50;;;;;;;;;;1778970;81;21041;-72
2022/04/03 07:53:37;;;;;;;4.33;2.75;;;;;;;;;;1779034;81;21040;-72
2022/04/03 07:56:05;;;;;;;5.33;2.90;;;;;;;;;;1778919;81;21033;-72
2022/04/03 07:58:33;;;;;;;4.37;3.05;;;;;;;;;;1779025;81;21040;-72
2022/04/03 08:01:00;;;;;;;4.83;2.95;;;;;;;;;;1778914;81;21076;-72
2022/04/03 08:03:26;;;;;;;4.50;2.92;;;;;;;;;;1778813;79;21155;-72
2022/04/03 08:05:54;;;;;;;3.83;2.77;;;;;;;;;;1778872;81;21045;-72
2022/04/03 08:08:22;;;;;;;3.77;2.50;;;;;;;;;;1778578;81;22103;-72
2022/04/03 08:10:49;;;;;;;4.60;2.83;;;;;;;;;;1778976;81;21555;-72
2022/04/03 08:13:15;;;;;;;3.85;2.33;;;;;;;;;;1778601;81;21062;-72
2022/04/03 08:15:43;;;;;;;3.00;2.22;;;;;;;;;;1778621;81;21045;-71
2022/04/03 08:18:09;;;;;;;2.87;2.15;;;;;;;;;;1778939;81;21080;-72
2022/04/03 08:20:38;;;;;;;3.22;2.52;;;;;;;;;;1778505;81;21084;-72
2022/04/03 08:23:06;;;;;;;3.42;2.58;;;;;;;;;;1778783;81;21051;-72
2022/04/03 08:25:33;;;;;;;3.52;2.40;;;;;;;;;;1778609;81;21068;-71
2022/04/03 08:28:03;;;;;;;2.95;2.22;;;;;;;;;;1778823;81;21053;-72
2022/04/03 08:30:28;;;;;;;4.20;2.80;;;;;;;;;;1777676;80;21057;-71
2022/04/03 08:32:54;;;;;;;5.03;2.42;;;;;;;;;;1778574;81;21642;-72
2022/04/03 08:35:21;;;;;;;4.15;2.90;;;;;;;;;;1778534;81;21064;-72
2022/04/03 08:37:48;;;;;;;3.83;2.77;;;;;;;;;;1778770;81;21024;-72
2022/04/03 08:40:14;;;;;;;4.75;3.02;;;;;;;;;;1778774;80;21048;-72
2022/04/03 08:42:40;;;;;;;4.42;2.30;;;;;;;;;;1778732;81;21061;-72
2022/04/03 08:45:11;;;;;;;3.98;2.65;;;;;;;;;;1778627;81;21057;-72
2022/04/03 08:47:38;;;;;;;3.72;2.72;;;;;;;;;;1778504;81;21045;-71
2022/04/03 08:50:05;;;;;;;3.42;2.50;;;;;;;;;;1778822;81;21551;-71
2022/04/03 08:52:31;;;;;;;3.42;2.50;;;;;;;;;;1778704;81;21076;-71
2022/04/03 08:54:59;;;;;;;4.15;2.70;;;;;;;;;;1778929;81;20990;-71
2022/04/03 08:57:25;;;;;;;4.70;2.45;;;;;;;;;;1778828;81;21009;-72
2022/04/03 08:59:51;;;;;;;3.60;2.50;;;;;;;;;;1778867;81;21361;-70
2022/04/03 09:02:18;;;;;;;3.20;2.60;;;;;;;;;;1778514;81;21020;-72
2022/04/03 09:04:45;;;;;;;2.98;2.20;;;;;;;;;;1778522;79;21587;-70
2022/04/03 09:07:13;;;;;;;2.85;2.02;;;;;;;;;;1779063;81;21551;-70
2022/04/03 09:09:39;;;;;;;2.27;2.00;;;;;;;;;;1778547;80;21045;-71
2022/04/03 09:12:07;;;;;;;3.40;1.98;;;;;;;;;;1757058;81;21044;-71
2022/04/03 09:14:34;;;;;;;4.22;2.40;;;;;;;;;;1773714;81;20997;-70
2022/04/03 09:17:03;;;;;;;2.95;2.33;;;;;;;;;;1778809;81;21535;-70
2022/04/03 09:19:33;;;;;;;4.37;2.50;;;;;;;;;;1778737;81;21080;-71
2022/04/03 09:22:00;;;;;;;3.47;2.37;;;;;;;;;;1778828;81;21063;-70
2022/04/03 09:24:26;;;;;;;2.85;2.10;;;;;;;;;;1778958;81;21025;-71
2022/04/03 09:26:59;;;;;;;2.80;2.08;;;;;;;;;;1778714;81;21156;-70
2022/04/03 09:29:25;;;;;;;2.30;1.90;;;;;;;;;;1777174;81;21033;-70
2022/04/03 09:31:59;;;;;;;3.37;2.00;;;;;;;;;;1778763;81;21164;-71
2022/04/03 09:34:26;;;;;;;3.65;2.47;;;;;;;;;;1779014;81;21017;-70
2022/04/03 09:36:59;;;;;;;2.10;1.90;;;;;;;;;;1778753;81;21068;-70
2022/04/03 09:39:28;;;;;;;2.42;1.80;;;;;;;;;;1776810;80;20985;-70
2022/04/03 09:42:03;;;;;;;2.52;2.00;;;;;;;;;;1771731;81;21014;-70
2022/04/03 09:44:33;;;;;;;2.77;1.87;;;;;;;;;;1771600;81;20998;-71
2022/04/03 09:47:14;;;;;;;2.00;1.70;;;;;;;;;;1771697;81;21060;-71
2022/04/03 09:49:41;;;;;;;4.37;2.50;;;;;;;;;;1771550;81;21088;-70
2022/04/03 09:52:11;;;;;;;4.33;2.45;;;;;;;;;;1771683;81;21092;-71
2022/04/03 09:54:39;;;;;;;5.47;2.65;;;;;;;;;;1771558;81;21021;-70
2022/04/03 09:57:19;;;;;;;3.45;2.42;;;;;;;;;;1771341;81;21033;-72
2022/04/03 09:59:49;;;;;;;3.98;2.15;;;;;;;;;;1771667;81;21009;-71
2022/04/03 10:02:15;;;;;;;4.10;2.33;;;;;;;;;;1771475;81;21049;-70
2022/04/03 10:04:43;;;;;;;3.45;2.40;;;;;;;;;;1771542;80;21057;-70
2022/04/03 10:07:12;;;;;;;4.22;2.62;;;;;;;;;;1771510;81;21034;-70
2022/04/03 10:09:38;;;;;;;2.42;2.10;;;;;;;;;;1771560;81;21013;-71
2022/04/03 10:12:05;;;;;;;2.72;2.00;;;;;;;;;;1771384;81;21041;-71
2022/04/03 10:14:32;;;;;;;1.82;1.70;;;;;;;;;;1771823;81;21108;-71
2022/04/03 10:16:59;;;;;;;3.72;1.92;;;;;;;;;;1771463;81;21068;-71
2022/04/03 10:19:26;;;;;;;2.00;1.80;;;;;;;;;;1771696;81;21378;-71
2022/04/03 10:21:54;;;;;;;2.25;1.90;;;;;;;;;;1771533;81;21005;-71
2022/04/03 10:24:28;;;;;;;2.40;1.87;;;;;;;;;;1771659;81;21153;-71
2022/04/03 10:26:51;;;;;;;4.22;2.52;;;;;;;;;;1769885;81;21072;-71
2022/04/03 10:29:18;;;;;;;4.83;2.30;;;;;;;;;;1771874;81;21045;-70
2022/04/03 10:31:55;;;;;;;3.42;2.45;;;;;;;;;;1771418;81;21017;-70
2022/04/03 10:34:22;;;;;;;3.60;2.40;;;;;;;;;;1770497;81;21524;-70
2022/04/03 10:36:52;;;;;;;3.02;2.20;;;;;;;;;;1771651;81;21038;-70
2022/04/03 10:39:23;;;;;;;3.15;2.35;;;;;;;;;;1772753;81;21119;-70
2022/04/03 10:41:50;;;;;;;3.17;2.30;;;;;;;;;;1778652;81;21083;-70
2022/04/03 10:44:24;;;;;;;2.42;2.15;;;;;;;;;;1778874;81;21504;-71
2022/04/03 10:47:05;;;;;;;3.02;2.25;;;;;;;;;;1778948;81;21041;-71
2022/04/03 10:49:34;;;;;;;4.85;2.30;;;;;;;;;;1778832;81;21024;-71
2022/04/03 10:52:05;;;;;;;2.87;2.00;;;;;;;;;;1778456;81;21116;-72
2022/04/03 10:54:31;;;;;;;1.70;1.60;;;;;;;;;;1779109;81;21029;-70
2022/04/03 10:57:16;;;;;;;4.05;2.52;;;;;;;;;;1778563;81;22128;-71
2022/04/03 10:59:43;;;;;;;4.42;2.17;;;;;;;;;;1778578;81;21033;-70
2022/04/03 11:02:17;;;;;;;3.05;2.20;;;;;;;;;;1778651;81;21068;-70
2022/04/03 11:04:45;;;;;;;4.25;2.45;;;;;;;;;;1778600;79;21100;-70
2022/04/03 11:07:12;;;;;;;2.98;2.20;;;;;;;;;;1778418;81;21009;-69
2022/04/03 11:09:42;;;;;;;3.10;2.00;;;;;;;;;;1778810;81;21492;-69
2022/04/03 11:12:09;;;;;;;4.17;2.15;;;;;;;;;;1778686;81;21021;-71
2022/04/03 11:14:55;;;;;;;4.30;2.17;;;;;;;;;;1778843;81;21096;-70
2022/04/03 11:17:41;;;;;;;2.00;1.80;;;;;;;;;;1778539;81;21571;-71
2022/04/03 11:20:09;;;;;;;3.35;2.08;;;;;;;;;;1778773;81;21044;-70
2022/04/03 11:22:36;;;;;;;4.12;2.00;;;;;;;;;;1778598;81;21548;-70
2022/04/03 11:25:04;;;;;;;3.20;2.15;;;;;;;;;;1778744;81;21016;-70
2022/04/03 11:27:31;;;;;;;3.85;2.50;;;;;;;;;;1778684;81;21064;-70
2022/04/03 11:29:57;;;;;;;3.40;2.40;;;;;;;;;;1778640;81;21072;-70
2022/04/03 11:32:24;;;;;;;4.85;2.60;;;;;;;;;;1778946;81;21033;-70
2022/04/03 11:34:57;;;;;;;4.05;2.67;;;;;;;;;;1778697;81;21068;-70
2022/04/03 11:37:24;;;;;;;;;;;;;;;;;;1781533;81;21024;-71
2022/04/03 11:39:52;;;;;;;2.62;2.00;;;;;;;;;;1780522;80;20105;-70
2022/04/03 11:42:18;;;;;;;4.03;2.22;;;;;;;;;;1786813;80;21083;-70
2022/04/03 11:44:46;;;;;;;3.45;2.33;;;;;;;;;;1756642;80;21063;-72
2022/04/03 11:47:19;;;;;;;4.12;2.83;;;;;;;;;;1785957;80;21068;-70
2022/04/03 11:49:46;;;;;;;3.72;2.08;;;;;;;;;;1787455;80;21056;-70
2022/04/03 11:52:13;;;;;;;6.08;3.00;;;;;;;;;;1786975;80;20984;-70
2022/04/03 11:54:39;;;;;;;4.08;2.50;;;;;;;;;;1786979;80;21032;-70
2022/04/03 11:57:06;;;;;;;5.35;3.20;;;;;;;;;;1787187;80;21088;-70
2022/04/03 11:59:33;;;;;;;3.20;2.33;;;;;;;;;;1787164;80;21082;-70
2022/04/03 12:02:00;;;;;;;4.45;2.60;;;;;;;;;;1787242;80;21005;-70
2022/04/03 12:04:26;;;;;;;3.67;2.30;;;;;;;;;;1756195;80;21087;-70
2022/04/03 12:07:00;;;;;;;3.85;2.20;;;;;;;;;;1787021;80;21063;-71
2022/04/03 12:09:28;;;;;;;2.08;1.80;;;;;;;;;;1787306;80;21056;-71
2022/04/03 12:11:56;;;;;;;2.70;2.05;;;;;;;;;;1787036;80;21036;-71
2022/04/03 12:14:25;;;;;;;2.22;1.82;;;;;;;;;;1787278;80;21056;-70
2022/04/03 12:16:59;;;;;;;5.05;2.45;;;;;;;;;;1787092;80;21009;-71
2022/04/03 12:19:28;;;;;;;4.33;2.20;;;;;;;;;;1786968;80;22321;-70
2022/04/03 12:21:56;;;;;;;3.65;2.42;;;;;;;;;;1785473;80;21083;-70
2022/04/03 12:24:23;;;;;;;2.08;1.70;;;;;;;;;;1787228;80;20993;-71
2022/04/03 12:26:52;;;;;;;2.80;1.90;;;;;;;;;;1787221;80;21527;-71
2022/04/03 12:29:19;;;;;;;2.25;1.80;;;;;;;;;;1787203;80;21032;-71
2022/04/03 12:31:47;;;;;;;2.35;1.80;;;;;;;;;;1786848;80;21017;-71
2022/04/03 12:34:15;;;;;;;3.47;2.27;;;;;;;;;;1785344;80;21037;-71
2022/04/03 12:36:49;;;;;;;3.62;2.30;;;;;;;;;;1787183;80;21013;-72
2022/04/03 12:39:27;;;;;;;6.60;3.10;;;;;;;;;;1786936;80;21083;-71
2022/04/03 12:41:54;;;;;;;5.67;2.85;;;;;;;;;;1756652;81;21014;-71
2022/04/03 12:44:21;;;;;;;5.78;2.72;;;;;;;;;;1778727;81;21059;-71
2022/04/03 12:46:48;;;;;;;4.20;2.52;;;;;;;;;;1778634;81;21064;-71
2022/04/03 12:49:16;;;;;;;3.67;2.27;;;;;;;;;;1778777;81;21133;-72
2022/04/03 12:51:48;;;;;;;2.85;2.02;;;;;;;;;;1778861;81;21048;-72
2022/04/03 12:54:15;;;;;;;4.22;1.90;;;;;;;;;;1778998;81;21161;-71
2022/04/03 12:59:37;;;;;;;2.27;1.98;;;;;;;;;;1778682;81;21037;-70
2022/04/03 13:02:05;;;;;;;2.67;2.22;;;;;;;;;;1778853;81;21013;-70
2022/04/03 13:04:32;;;;;;;4.08;1.92;;;;;;;;;;1778761;79;21060;-71
2022/04/03 13:06:59;;;;;;;3.02;2.08;;;;;;;;;;1778446;81;21504;-71
2022/04/03 13:09:25;;;;;;;3.00;2.15;;;;;;;;;;1778821;81;21516;-70
2022/04/03 13:11:53;;;;;;;2.20;2.00;;;;;;;;;;1778516;80;21087;-71
2022/04/03 13:14:26;;;;;;;4.62;2.08;;;;;;;;;;1778737;81;21076;-72
2022/04/03 13:16:52;;;;;;;3.15;2.27;;;;;;;;;;1778529;81;21021;-72
2022/04/03 13:19:21;;;;;;;2.12;1.85;;;;;;;;;;1778750;81;21009;-69
2022/04/03 13:21:47;;;;;;;2.70;1.90;;;;;;;;;;1778720;81;21021;-72
2022/04/03 13:24:14;;;;;;;4.70;2.22;;;;;;;;;;1778820;81;21001;-72
2022/04/03 13:26:42;;;;;;;3.67;2.12;;;;;;;;;;1778697;81;21048;-71
2022/04/03 13:29:08;;;;;;;3.52;2.30;;;;;;;;;;1778798;81;21096;-72
2022/04/03 13:31:35;;;;;;;5.20;2.70;;;;;;;;;;1779016;81;21521;-71
2022/04/03 13:34:04;;;;;;;3.80;2.10;;;;;;;;;;1778579;81;21029;-71
2022/04/03 13:36:31;;;;;;;4.42;2.67;;;;;;;;;;1778966;81;21056;-72
2022/04/03 13:39:00;;;;;;;3.75;2.67;;;;;;;;;;1778748;81;21021;-72
2022/04/03 13:41:26;;;;;;;4.08;2.10;;;;;;;;;;1778622;80;21552;-71
2022/04/03 13:43:53;;;;;;;2.55;2.02;;;;;;;;;;1778778;81;21103;-72
2022/04/03 13:46:20;;;;;;;2.05;1.82;;;;;;;;;;1778958;81;21104;-73
2022/04/03 13:48:47;;;;;;;2.72;2.15;;;;;;;;;;1778772;81;21100;-71
2022/04/03 13:51:15;;;;;;;2.65;2.05;;;;;;;;;;1778459;81;21040;-72
2022/04/03 13:53:41;;;;;;;4.67;2.00;;;;;;;;;;1778801;81;21056;-71
2022/04/03 13:56:08;;;;;;;2.70;2.20;;;;;;;;;;1778375;81;21068;-71
2022/04/03 13:58:34;;;;;;;3.30;2.42;;;;;;;;;;1778946;81;21060;-70
2022/04/03 14:01:01;;;;;;;2.65;1.98;;;;;;;;;;1778760;81;21139;-70
2022/04/03 14:03:28;;;;;;;3.25;2.08;;;;;;;;;;1778735;79;21080;-72
2022/04/03 14:05:55;;;;;;;3.00;2.20;;;;;;;;;;1778920;81;21119;-71
2022/04/03 14:08:22;;;;;;;3.62;2.27;;;;;;;;;;1778407;81;21005;-71
2022/04/03 14:10:52;;;;;;;3.77;2.20;;;;;;;;;;1778821;81;21044;-71
2022/04/03 14:13:20;;;;;;;2.92;2.15;;;;;;;;;;1778424;81;21064;-70
2022/04/03 14:15:47;;;;;;;2.70;1.90;;;;;;;;;;1778652;81;21059;-70
2022/04/03 14:18:17;;;;;;;2.92;1.98;;;;;;;;;;1778702;81;21049;-71
2022/04/03 14:20:43;;;;;;;2.83;1.75;;;;;;;;;;1778711;81;21574;-71
2022/04/03 14:23:10;;;;;;;4.75;2.20;;;;;;;;;;1778807;81;21108;-70
2022/04/03 14:25:37;;;;;;;2.92;2.00;;;;;;;;;;1778443;81;21001;-71
2022/04/03 14:28:05;;;;;;;2.62;2.05;;;;;;;;;;1778513;81;21103;-71
2022/04/03 14:30:31;;;;;;;3.00;2.22;;;;;;;;;;1778764;81;21016;-72
2022/04/03 14:32:59;;;;;;;4.17;2.72;;;;;;;;;;1778559;81;21041;-71
2022/04/03 14:35:26;;;;;;;2.10;1.90;;;;;;;;;;1778904;81;21076;-71
2022/04/03 14:37:52;;;;;;;3.12;2.15;;;;;;;;;;1778552;81;21115;-71
2022/04/03 14:40:19;;;;;;;3.27;2.27;;;;;;;;;;1778458;80;21056;-71
2022/04/03 14:42:45;;;;;;;3.00;2.30;;;;;;;;;;1776956;81;21075;-72
2022/04/03 14:45:12;;;;;;;2.33;2.10;;;;;;;;;;1776586;81;21024;-72
2022/04/03 14:47:40;;;;;;;2.70;2.02;;;;;;;;;;1776942;81;21067;-72
2022/04/03 14:50:07;;;;;;;5.30;2.60;;;;;;;;;;1776598;81;21021;-71
2022/04/03 14:52:34;;;;;;;3.75;2.47;;;;;;;;;;1776867;81;21632;-71
2022/04/03 14:55:01;;;;;;;4.05;2.58;;;;;;;;;;1776728;81;21033;-71